Time;durP1;ratioP1;P1;durP2;ratioP2;P2;SDS_P1;SDS_P2;PMS_P1;PMS_P2;Temp;Humidity;BMP_temperature;BMP_pressure;BME280_temperature;BME280_humidity;BME280_pressure;Samples;Min_cycle;Max_cycle;Signal;HPM_P1;HPM_P2
2023/06/20 00:02:43;;;;;;;14.00;11.60;;;22.50;90.60;;;;;;5093645;28;20020;-66
2023/06/20 00:05:29;;;;;;;13.82;11.75;;;22.50;90.70;;;;;;5106836;28;20066;-67
2023/06/20 00:08:15;;;;;;;15.27;11.10;;;22.40;90.60;;;;;;5092920;28;20685;-66
2023/06/20 00:11:01;;;;;;;14.02;11.20;;;22.40;90.60;;;;;;5090845;28;20034;-66
2023/06/20 00:13:47;;;;;;;12.93;10.55;;;22.40;90.60;;;;;;5091601;28;20043;-66
2023/06/20 00:16:33;;;;;;;14.65;11.57;;;22.40;90.60;;;;;;5092391;28;20053;-67
2023/06/20 00:19:19;;;;;;;17.58;12.75;;;22.40;90.70;;;;;;5090604;28;20454;-67
2023/06/20 00:22:05;;;;;;;14.82;11.77;;;22.40;90.80;;;;;;5089639;28;20451;-67
2023/06/20 00:24:51;;;;;;;13.48;10.80;;;22.40;90.90;;;;;;5109760;28;20440;-67
2023/06/20 00:27:38;;;;;;;14.43;11.48;;;22.40;90.90;;;;;;5094410;28;20100;-67
2023/06/20 00:30:24;;;;;;;15.57;11.48;;;22.40;90.90;;;;;;5091029;28;20036;-67
2023/06/20 00:33:10;;;;;;;15.43;12.02;;;22.30;91.00;;;;;;5100433;28;20131;-67
2023/06/20 00:35:56;;;;;;;14.65;10.65;;;22.30;91.00;;;;;;5090520;28;20036;-67
2023/06/20 00:38:48;;;;;;;13.98;11.85;;;22.40;91.00;;;;;;5107572;28;20046;-67
2023/06/20 00:41:34;;;;;;;15.00;12.00;;;22.30;91.00;;;;;;5106760;28;20564;-67
2023/06/20 00:44:21;;;;;;;14.48;11.23;;;22.30;91.10;;;;;;5091591;28;20539;-67
2023/06/20 00:47:07;;;;;;;13.43;12.00;;;22.30;91.20;;;;;;5089240;28;20044;-67
2023/06/20 00:49:53;;;;;;;17.35;11.80;;;22.30;91.20;;;;;;5090953;28;20059;-67
2023/06/20 00:52:39;;;;;;;15.45;11.60;;;22.30;91.30;;;;;;5088501;28;20092;-67
2023/06/20 00:55:27;;;;;;;13.77;11.32;;;22.20;91.30;;;;;;5090206;28;20066;-67
2023/06/20 00:58:13;;;;;;;14.20;12.20;;;22.20;91.30;;;;;;5090062;27;20028;-67
2023/06/20 01:00:59;;;;;;;18.80;12.70;;;22.20;91.20;;;;;;5094525;28;20020;-67
2023/06/20 01:03:50;;;;;;;17.08;11.73;;;22.10;91.30;;;;;;5091298;28;20038;-67
2023/06/20 01:06:42;;;;;;;14.70;11.75;;;22.10;91.40;;;;;;5089487;28;20405;-68
2023/06/20 01:10:08;;;;;;;16.83;12.85;;;22.10;91.40;;;;;;5075684;28;20032;-66
2023/06/20 01:13:08;;;;;;;17.23;11.88;;;22.10;91.40;;;;;;5095361;28;20039;-67
2023/06/20 01:16:09;;;;;;;14.00;12.35;;;22.10;91.60;;;;;;5108072;28;20111;-66
2023/06/20 01:19:19;;;;;;;15.98;11.52;;;22.00;91.80;;;;;;5090076;28;20040;-67
2023/06/20 01:22:10;;;;;;;14.35;11.60;;;22.00;91.80;;;;;;5093198;28;20488;-66
2023/06/20 01:24:58;;;;;;;19.95;12.05;;;22.00;91.80;;;;;;5095969;28;20102;-65
2023/06/20 01:28:06;;;;;;;13.50;11.65;;;21.90;91.80;;;;;;5104445;28;20047;-65
2023/06/20 01:31:08;;;;;;;17.23;12.57;;;21.90;91.90;;;;;;5089453;28;20032;-66
2023/06/20 01:33:58;;;;;;;14.23;10.88;;;21.90;92.00;;;;;;5089850;28;20055;-65
2023/06/20 01:36:52;;;;;;;16.65;12.88;;;21.80;92.00;;;;;;5091883;28;20114;-66
2023/06/20 01:39:45;;;;;;;14.27;12.07;;;21.90;92.10;;;;;;5106759;28;20047;-66
2023/06/20 01:42:34;;;;;;;16.83;12.63;;;21.80;92.20;;;;;;5099743;28;20047;-65
2023/06/20 01:45:21;;;;;;;13.15;11.23;;;21.80;92.20;;;;;;5109973;28;20031;-65
2023/06/20 01:48:08;;;;;;;15.75;12.07;;;21.80;92.30;;;;;;5098936;28;20024;-65
2023/06/20 01:50:55;;;;;;;15.18;11.93;;;21.80;92.40;;;;;;5089919;28;20454;-66
2023/06/20 01:53:42;;;;;;;15.20;12.23;;;21.80;92.50;;;;;;5091215;28;20051;-65
2023/06/20 01:56:30;;;;;;;21.33;16.88;;;21.70;92.60;;;;;;5073983;28;20031;-65
2023/06/20 01:59:18;;;;;;;15.43;12.63;;;21.70;92.60;;;;;;5089230;28;20038;-65
2023/06/20 02:02:05;;;;;;;15.93;12.32;;;21.70;92.80;;;;;;5089303;28;20384;-65
2023/06/20 02:04:56;;;;;;;16.60;13.48;;;21.70;92.80;;;;;;5092366;28;20032;-65
2023/06/20 02:07:44;;;;;;;16.30;12.35;;;21.60;92.90;;;;;;5097795;28;20024;-65
2023/06/20 02:10:32;;;;;;;16.65;12.93;;;21.60;92.90;;;;;;5092318;28;20118;-66
2023/06/20 02:13:21;;;;;;;17.90;13.23;;;21.60;93.00;;;;;;5090729;28;20035;-66
2023/06/20 02:16:08;;;;;;;15.43;12.57;;;21.60;93.00;;;;;;5108800;28;20081;-66
2023/06/20 02:18:54;;;;;;;15.02;12.20;;;21.60;93.10;;;;;;5107559;28;20053;-66
2023/06/20 02:21:44;;;;;;;16.65;12.95;;;21.60;93.10;;;;;;5098273;28;20441;-66
2023/06/20 02:24:31;;;;;;;17.45;12.85;;;21.50;93.10;;;;;;5089135;28;20123;-66
2023/06/20 02:27:19;;;;;;;16.08;12.88;;;21.50;93.20;;;;;;5089509;28;20058;-66
2023/06/20 02:30:09;;;;;;;17.23;12.88;;;21.50;93.20;;;;;;5087215;28;20035;-66
2023/06/20 02:32:57;;;;;;;17.92;12.77;;;21.50;93.20;;;;;;5090052;28;20024;-65
2023/06/20 02:35:45;;;;;;;16.50;13.38;;;21.50;93.40;;;;;;5091296;28;20044;-65
2023/06/20 02:38:32;;;;;;;17.77;12.82;;;21.50;93.50;;;;;;5093590;28;20423;-65
2023/06/20 02:41:19;;;;;;;16.75;13.20;;;21.50;93.60;;;;;;5088395;28;20508;-66
2023/06/20 02:44:05;;;;;;;14.85;11.93;;;21.50;93.70;;;;;;5088636;28;20035;-65
2023/06/20 02:47:36;;;;;;;16.27;13.20;;;21.50;93.80;;;;;;5089109;28;20036;-66
2023/06/20 02:50:32;;;;;;;18.02;14.18;;;21.50;93.70;;;;;;5083466;28;20161;-65
2023/06/20 02:53:47;;;;;;;16.23;12.60;;;21.50;93.80;;;;;;5097967;28;20108;-66
2023/06/20 02:56:36;;;;;;;16.70;12.77;;;21.50;93.70;;;;;;5073066;28;20051;-65
2023/06/20 02:59:27;;;;;;;19.42;13.13;;;21.50;93.70;;;;;;5089619;28;20051;-66
2023/06/20 03:02:16;;;;;;;14.82;12.50;;;21.50;93.90;;;;;;5092246;28;20471;-65
2023/06/20 03:05:08;;;;;;;15.57;11.82;;;21.50;94.00;;;;;;5095450;28;20095;-62
2023/06/20 03:07:55;;;;;;;14.63;11.65;;;21.50;94.00;;;;;;5096439;28;20032;-64
2023/06/20 03:15:13;;;;;;;14.93;11.95;;;21.50;94.10;;;;;;5102136;28;20114;-63
2023/06/20 03:18:00;;;;;;;15.68;12.55;;;21.50;94.00;;;;;;5093215;28;20039;-71
2023/06/20 03:20:48;;;;;;;17.55;13.07;;;21.50;94.00;;;;;;5100687;28;20047;-72
2023/06/20 03:23:34;;;;;;;17.33;13.05;;;21.50;94.20;;;;;;5101131;28;20032;-72
2023/06/20 03:26:20;;;;;;;19.48;12.80;;;21.60;94.30;;;;;;5102851;28;20031;-69
2023/06/20 03:29:05;;;;;;;17.70;13.48;;;21.60;94.30;;;;;;5109297;27;20380;-69
2023/06/20 03:31:51;;;;;;;16.27;13.30;;;21.60;94.40;;;;;;5110881;28;20491;-69
2023/06/20 03:34:38;;;;;;;16.70;13.35;;;21.60;94.50;;;;;;5107080;28;20511;-70
2023/06/20 03:37:24;;;;;;;15.25;12.45;;;21.70;94.40;;;;;;5111613;28;20070;-69
2023/06/20 03:40:10;;;;;;;17.10;13.95;;;21.70;94.50;;;;;;5109581;28;20040;-70
2023/06/20 03:42:56;;;;;;;19.58;13.63;;;21.70;94.30;;;;;;5092369;28;20032;-70
2023/06/20 03:45:42;;;;;;;17.02;12.90;;;21.80;94.30;;;;;;5092210;28;20409;-71
2023/06/20 03:48:28;;;;;;;19.80;14.85;;;21.80;94.40;;;;;;5093571;28;20054;-70
2023/06/20 03:51:14;;;;;;;17.33;13.35;;;21.90;94.40;;;;;;5091512;28;20115;-70
2023/06/20 03:54:00;;;;;;;16.70;13.55;;;21.90;94.30;;;;;;5076533;28;20067;-70
2023/06/20 03:56:46;;;;;;;16.88;12.88;;;22.00;94.30;;;;;;5104977;28;20040;-70
2023/06/20 03:59:32;;;;;;;16.33;12.73;;;22.00;94.30;;;;;;5094085;28;20047;-71
2023/06/20 04:02:18;;;;;;;17.67;13.77;;;22.10;94.30;;;;;;5092433;28;20496;-70
2023/06/20 04:05:04;;;;;;;16.48;13.63;;;22.10;94.40;;;;;;5101952;28;20039;-70
2023/06/20 04:07:50;;;;;;;16.92;13.20;;;22.10;94.20;;;;;;5090817;28;20036;-70
2023/06/20 04:10:37;;;;;;;16.42;13.02;;;22.20;94.20;;;;;;5099114;28;20069;-70
2023/06/20 04:13:23;;;;;;;19.50;14.80;;;22.20;94.30;;;;;;5099811;28;20027;-70
2023/06/20 04:16:09;;;;;;;17.33;14.15;;;22.20;94.10;;;;;;5095599;28;20389;-70
2023/06/20 04:18:55;;;;;;;19.00;13.65;;;22.20;94.00;;;;;;5090201;28;20101;-71
2023/06/20 04:21:41;;;;;;;18.65;14.63;;;22.30;94.00;;;;;;5092166;28;20028;-70
2023/06/20 04:24:27;;;;;;;17.90;13.68;;;22.30;93.90;;;;;;5090749;28;20036;-71
2023/06/20 04:27:13;;;;;;;18.15;13.68;;;22.30;93.90;;;;;;5089921;28;20118;-69
2023/06/20 04:29:59;;;;;;;19.98;14.05;;;22.40;93.90;;;;;;5088414;28;20035;-70
2023/06/20 04:32:45;;;;;;;17.90;14.43;;;22.40;93.80;;;;;;5103031;28;20028;-70
2023/06/20 04:35:31;;;;;;;19.15;13.50;;;22.50;93.90;;;;;;5090315;28;20142;-70
2023/06/20 04:38:17;;;;;;;20.27;14.25;;;22.60;93.80;;;;;;5090291;28;20108;-71
2023/06/20 04:41:03;;;;;;;17.70;14.15;;;22.70;93.90;;;;;;5091153;28;20146;-70
2023/06/20 04:43:49;;;;;;;18.00;13.77;;;22.70;93.70;;;;;;5099626;28;20785;-71
2023/06/20 04:46:35;;;;;;;17.73;14.27;;;22.80;93.50;;;;;;5091626;28;20043;-71
2023/06/20 04:49:21;;;;;;;17.42;14.07;;;22.80;93.50;;;;;;5100957;28;20111;-72
2023/06/20 04:52:07;;;;;;;20.10;14.13;;;22.90;93.30;;;;;;5091396;28;20070;-72
2023/06/20 04:54:53;;;;;;;19.55;14.32;;;22.90;93.30;;;;;;5090358;28;20031;-72
2023/06/20 04:57:39;;;;;;;14.98;12.70;;;22.90;93.20;;;;;;5092249;28;20028;-73
2023/06/20 05:00:27;;;;;;;17.77;13.55;;;23.00;93.40;;;;;;5108477;28;20051;-71
2023/06/20 05:03:12;;;;;;;19.60;14.13;;;23.00;93.40;;;;;;5106358;28;20496;-71
2023/06/20 05:05:58;;;;;;;16.42;13.60;;;23.10;93.50;;;;;;5104151;28;20046;-77
2023/06/20 05:08:45;;;;;;;18.67;13.68;;;23.20;93.30;;;;;;5109176;28;20039;-72
2023/06/20 05:11:31;;;;;;;17.63;13.50;;;23.20;93.30;;;;;;5090936;28;20132;-74
2023/06/20 05:14:17;;;;;;;19.38;13.52;;;23.20;93.10;;;;;;5089833;28;20020;-69
2023/06/20 05:17:03;;;;;;;15.98;13.43;;;23.20;93.10;;;;;;5105342;28;20112;-70
2023/06/20 05:19:49;;;;;;;18.52;13.00;;;23.20;93.00;;;;;;5090075;28;20068;-73
2023/06/20 05:22:35;;;;;;;18.88;14.23;;;23.30;93.10;;;;;;5089446;28;20028;-72
2023/06/20 05:25:20;;;;;;;20.90;14.15;;;23.30;93.00;;;;;;5102552;28;20483;-72
2023/06/20 05:28:06;;;;;;;18.05;14.10;;;23.30;93.00;;;;;;5102465;28;20028;-73
2023/06/20 05:30:52;;;;;;;18.02;14.50;;;23.30;93.00;;;;;;5090733;28;20040;-73
2023/06/20 05:33:38;;;;;;;18.63;13.43;;;23.30;93.00;;;;;;5088921;28;20059;-73
2023/06/20 05:36:24;;;;;;;17.08;14.30;;;23.30;92.90;;;;;;5089811;28;20460;-71
2023/06/20 05:39:10;;;;;;;17.17;13.57;;;23.40;93.10;;;;;;5087762;28;20544;-72
2023/06/20 05:41:56;;;;;;;18.05;13.57;;;23.40;93.00;;;;;;5092037;28;20859;-72
2023/06/20 05:44:42;;;;;;;19.17;14.45;;;23.40;93.10;;;;;;5102909;28;20038;-72
2023/06/20 05:47:28;;;;;;;23.27;14.65;;;23.40;93.00;;;;;;5090386;28;20068;-72
2023/06/20 05:50:14;;;;;;;20.20;14.00;;;23.50;92.90;;;;;;5097307;28;20055;-72
2023/06/20 05:53:00;;;;;;;18.02;13.45;;;23.50;93.00;;;;;;5089553;27;20032;-73
2023/06/20 05:55:46;;;;;;;20.80;14.98;;;23.50;93.00;;;;;;5092212;28;20028;-72
2023/06/20 05:58:32;;;;;;;20.38;14.25;;;23.60;93.10;;;;;;5102420;28;20027;-71
2023/06/20 06:01:18;;;;;;;19.27;14.25;;;23.60;92.90;;;;;;5093938;28;20044;-72
2023/06/20 06:04:04;;;;;;;16.17;13.05;;;23.70;92.90;;;;;;5087787;28;20040;-72
2023/06/20 06:06:50;;;;;;;23.38;14.38;;;23.70;92.80;;;;;;5092653;28;20570;-72
2023/06/20 06:09:36;;;;;;;20.92;14.05;;;23.70;92.80;;;;;;5089415;28;20440;-71
2023/06/20 06:12:22;;;;;;;18.50;14.40;;;23.80;92.80;;;;;;5093986;28;20094;-75
2023/06/20 06:15:08;;;;;;;19.15;12.90;;;24.00;92.70;;;;;;5096959;28;20386;-72
2023/06/20 06:17:54;;;;;;;19.23;13.45;;;24.10;92.50;;;;;;5100611;28;20031;-71
2023/06/20 06:20:40;;;;;;;17.75;13.27;;;24.10;92.50;;;;;;5092691;28;20036;-71
2023/06/20 06:23:27;;;;;;;20.10;14.07;;;24.20;92.20;;;;;;5089079;28;20039;-71
2023/06/20 06:26:13;;;;;;;21.13;15.18;;;24.20;91.90;;;;;;5094096;28;20067;-70
2023/06/20 06:28:59;;;;;;;22.38;15.75;;;24.20;91.70;;;;;;5099968;28;20057;-70
2023/06/20 06:31:45;;;;;;;21.33;14.90;;;24.30;91.70;;;;;;5099069;28;20406;-70
2023/06/20 06:34:32;;;;;;;22.13;13.57;;;24.30;91.60;;;;;;5101202;28;20068;-73
2023/06/20 06:37:18;;;;;;;18.38;14.38;;;24.50;91.90;;;;;;5090295;28;20051;-62
2023/06/20 06:40:06;;;;;;;24.77;14.60;;;24.60;91.70;;;;;;5091066;28;20571;-62
2023/06/20 06:42:52;;;;;;;17.88;13.68;;;24.80;91.50;;;;;;5107345;28;20695;-63
2023/06/20 06:45:38;;;;;;;21.50;14.13;;;24.90;91.30;;;;;;5092873;28;20035;-65
2023/06/20 06:48:24;;;;;;;21.52;15.48;;;25.00;91.20;;;;;;5088635;28;20477;-63
2023/06/20 06:51:10;;;;;;;19.55;14.85;;;25.00;90.90;;;;;;5090628;28;20040;-62
2023/06/20 06:53:56;;;;;;;18.38;13.70;;;25.00;90.90;;;;;;5091868;28;20024;-63
2023/06/20 06:56:42;;;;;;;19.50;13.40;;;25.00;91.10;;;;;;5104220;28;20083;-63
2023/06/20 06:59:28;;;;;;;21.95;14.30;;;25.00;91.00;;;;;;5105099;28;20039;-62
2023/06/20 07:02:14;;;;;;;20.17;14.43;;;25.10;91.00;;;;;;5091289;28;20707;-63
2023/06/20 07:05:00;;;;;;;19.60;14.30;;;25.10;90.70;;;;;;5098745;28;20094;-63
2023/06/20 07:07:46;;;;;;;20.67;14.27;;;25.30;91.30;;;;;;5094296;28;20020;-63
2023/06/20 07:10:32;;;;;;;17.20;13.52;;;25.30;90.80;;;;;;5104466;27;20062;-62
2023/06/20 07:13:18;;;;;;;23.70;14.57;;;25.30;90.70;;;;;;5092492;28;20024;-63
2023/06/20 07:16:04;;;;;;;19.30;14.05;;;25.40;90.70;;;;;;5091184;28;20038;-63
2023/06/20 07:18:50;;;;;;;21.65;15.55;;;25.50;90.80;;;;;;5092990;28;20040;-63
2023/06/20 07:21:36;;;;;;;20.75;14.45;;;25.50;90.70;;;;;;5094213;28;20146;-63
2023/06/20 07:24:22;;;;;;;22.55;15.02;;;25.60;90.40;;;;;;5111276;28;20034;-62
2023/06/20 07:27:08;;;;;;;17.27;14.38;;;25.60;90.40;;;;;;5093408;28;20063;-62
2023/06/20 07:29:54;;;;;;;16.65;13.93;;;25.60;90.40;;;;;;5090869;28;22107;-63
2023/06/20 07:32:40;;;;;;;18.33;14.40;;;25.70;90.80;;;;;;5090967;28;20043;-63
2023/06/20 07:35:25;;;;;;;20.77;13.65;;;25.80;90.70;;;;;;5092096;28;20083;-63
2023/06/20 07:38:12;;;;;;;17.77;14.18;;;25.90;91.00;;;;;;5091872;28;20031;-63
2023/06/20 07:40:59;;;;;;;16.60;13.15;;;25.90;91.10;;;;;;5091641;28;20043;-63
2023/06/20 07:43:45;;;;;;;21.42;13.70;;;26.00;91.10;;;;;;5090676;28;20137;-63
2023/06/20 07:46:31;;;;;;;18.10;14.10;;;26.10;91.10;;;;;;5101128;28;20391;-64
2023/06/20 07:49:17;;;;;;;17.60;13.70;;;26.20;91.00;;;;;;5091895;28;20060;-63
2023/06/20 07:52:03;;;;;;;20.35;13.68;;;26.30;91.10;;;;;;5091915;28;20024;-63
2023/06/20 07:54:50;;;;;;;20.63;14.98;;;26.40;91.30;;;;;;5091101;28;20024;-63
2023/06/20 07:57:35;;;;;;;18.25;13.55;;;26.50;91.00;;;;;;5091245;28;20031;-62
2023/06/20 08:00:23;;;;;;;16.77;14.35;;;26.70;90.80;;;;;;5089940;28;20484;-63
2023/06/20 08:03:08;;;;;;;19.00;14.55;;;26.90;90.80;;;;;;5094327;28;20092;-62
2023/06/20 08:05:54;;;;;;;19.25;14.95;;;27.00;90.60;;;;;;5090962;28;20115;-64
2023/06/20 08:08:41;;;;;;;19.70;13.57;;;27.20;90.20;;;;;;5078545;28;20028;-63
2023/06/20 08:11:27;;;;;;;21.70;15.10;;;27.30;90.20;;;;;;5096217;28;20392;-62
2023/06/20 08:14:13;;;;;;;19.55;14.90;;;27.40;90.10;;;;;;5093794;28;20476;-63
2023/06/20 08:16:59;;;;;;;28.73;15.05;;;27.50;89.50;;;;;;5091980;28;20541;-62
2023/06/20 08:19:45;;;;;;;22.08;14.88;;;27.50;89.00;;;;;;5090768;28;20393;-62
2023/06/20 08:22:32;;;;;;;22.80;15.20;;;27.50;89.00;;;;;;5101840;28;20534;-62
2023/06/20 08:25:18;;;;;;;19.90;14.75;;;27.50;88.20;;;;;;5099448;28;20373;-63
2023/06/20 08:28:03;;;;;;;22.27;15.40;;;27.50;88.20;;;;;;5090845;28;20031;-62
2023/06/20 08:30:50;;;;;;;19.13;13.70;;;27.50;88.70;;;;;;5096652;28;20078;-63
2023/06/20 08:33:36;;;;;;;19.85;14.30;;;27.50;88.80;;;;;;5103398;28;20127;-62
2023/06/20 08:36:22;;;;;;;18.55;14.48;;;27.50;88.60;;;;;;5089506;28;20047;-62
2023/06/20 08:39:08;;;;;;;18.80;14.25;;;27.50;88.50;;;;;;5090284;28;20565;-63
2023/06/20 08:41:54;;;;;;;16.45;13.52;;;27.40;88.60;;;;;;5089755;28;20558;-66
2023/06/20 08:44:40;;;;;;;16.45;13.07;;;27.50;88.70;;;;;;5098698;28;20032;-63
2023/06/20 08:47:26;;;;;;;19.30;13.85;;;27.50;88.90;;;;;;5103110;28;20398;-64
2023/06/20 08:50:12;;;;;;;18.98;14.10;;;27.50;88.50;;;;;;5106386;28;20028;-63
2023/06/20 08:53:05;;;;;;;20.98;14.13;;;27.50;88.80;;;;;;5088284;28;20063;-63
2023/06/20 08:55:52;;;;;;;18.45;13.93;;;27.50;89.20;;;;;;5092594;28;20059;-62
2023/06/20 08:58:38;;;;;;;18.40;13.98;;;27.50;89.10;;;;;;5092975;28;20036;-62
2023/06/20 09:01:25;;;;;;;18.38;13.93;;;27.50;89.20;;;;;;5088914;28;20054;-63
2023/06/20 09:04:12;;;;;;;17.65;14.30;;;27.50;89.90;;;;;;5088521;28;20609;-63
2023/06/20 09:06:59;;;;;;;19.15;13.23;;;27.50;90.00;;;;;;5087581;28;20035;-61
2023/06/20 09:09:45;;;;;;;18.05;14.15;;;27.60;89.80;;;;;;5088332;28;20086;-62
2023/06/20 09:12:50;;;;;;;16.98;14.27;;;27.50;89.30;;;;;;5088813;28;20103;-62
2023/06/20 09:15:38;;;;;;;;;;;27.50;89.10;;;;;;5091169;28;20054;-63
2023/06/20 09:18:24;;;;;;;20.40;14.52;;;27.50;89.00;;;;;;5087515;28;19969;-64
2023/06/20 09:21:16;;;;;;;20.65;15.93;;;27.50;88.60;;;;;;5089082;28;20040;-62
2023/06/20 09:24:04;;;;;;;22.55;14.25;;;27.40;88.40;;;;;;5087858;28;20113;-63
2023/06/20 09:26:50;;;;;;;18.60;14.23;;;27.30;88.30;;;;;;5078305;28;20063;-62
2023/06/20 09:32:22;;;;;;;21.58;14.93;;;27.00;88.50;;;;;;5274383;22;20092;-69
2023/06/20 09:35:10;;;;;;;21.92;16.35;;;26.90;89.40;;;;;;5025137;28;20025;-68
2023/06/20 09:37:55;;;;;;;18.42;13.88;;;26.70;89.90;;;;;;5025426;28;20112;-68
2023/06/20 09:40:43;;;;;;;19.23;14.45;;;26.60;90.20;;;;;;5025827;28;20076;-68
2023/06/20 09:43:29;;;;;;;17.48;14.75;;;26.40;90.60;;;;;;5027754;28;20038;-68
2023/06/20 09:46:15;;;;;;;20.23;14.35;;;26.30;90.80;;;;;;5016505;28;20076;-68
2023/06/20 09:49:04;;;;;;;19.83;14.85;;;26.10;91.20;;;;;;5022463;28;21826;-68
2023/06/20 09:52:00;;;;;;;19.50;14.68;;;25.90;91.70;;;;;;5014059;28;20449;-68
2023/06/20 09:54:57;;;;;;;18.02;14.05;;;25.80;92.00;;;;;;5025598;28;20112;-68
2023/06/20 09:57:49;;;;;;;19.63;14.38;;;25.60;92.00;;;;;;5024647;28;20034;-68
2023/06/20 10:00:37;;;;;;;16.90;13.88;;;25.50;92.40;;;;;;5026605;28;20569;-68
2023/06/20 10:03:25;;;;;;;21.63;14.45;;;25.30;92.60;;;;;;5026358;28;20033;-69
2023/06/20 10:06:11;;;;;;;23.05;15.27;;;25.10;93.00;;;;;;5028136;28;20148;-69
2023/06/20 10:08:58;;;;;;;20.45;16.13;;;25.00;93.40;;;;;;5012319;28;20574;-69
2023/06/20 10:11:44;;;;;;;20.08;15.55;;;24.90;93.80;;;;;;5025139;28;20033;-69
2023/06/20 10:14:31;;;;;;;20.98;16.25;;;24.80;94.10;;;;;;5026229;28;20105;-69
2023/06/20 10:17:32;;;;;;;20.95;16.42;;;24.70;94.40;;;;;;5015838;28;20086;-69
2023/06/20 10:20:28;;;;;;;19.30;15.43;;;24.50;94.60;;;;;;5025526;28;20481;-69
2023/06/20 10:23:15;;;;;;;22.52;16.17;;;24.30;95.10;;;;;;5022651;28;20029;-69
2023/06/20 10:26:08;;;;;;;19.00;15.45;;;24.10;95.40;;;;;;5026703;28;20099;-69
2023/06/20 10:28:57;;;;;;;26.25;17.27;;;24.00;95.90;;;;;;5026587;28;20041;-70
2023/06/20 10:32:03;;;;;;;21.23;16.67;;;23.80;96.40;;;;;;5007676;28;20456;-69
2023/06/20 10:34:52;;;;;;;19.73;14.95;;;23.70;96.70;;;;;;5009764;28;20065;-69
2023/06/20 10:37:38;;;;;;;23.40;15.80;;;23.60;97.20;;;;;;5019122;28;20115;-69
2023/06/20 10:40:31;;;;;;;21.40;16.35;;;23.60;97.50;;;;;;5015066;28;20061;-69
2023/06/20 10:43:18;;;;;;;24.17;16.25;;;23.40;97.90;;;;;;5010529;28;20040;-70
2023/06/20 10:46:04;;;;;;;22.52;16.25;;;23.30;98.20;;;;;;5009206;28;20034;-70
2023/06/20 10:48:50;;;;;;;20.88;16.70;;;23.30;98.70;;;;;;5026123;28;20034;-70
2023/06/20 10:51:46;;;;;;;25.08;16.30;;;23.20;99.10;;;;;;5025895;28;20034;-70
2023/06/20 10:54:34;;;;;;;23.95;16.23;;;23.20;99.40;;;;;;5025606;28;20073;-70
2023/06/20 10:57:22;;;;;;;21.67;15.93;;;23.20;99.60;;;;;;5014489;28;20044;-71
2023/06/20 11:00:15;;;;;;;24.45;16.70;;;23.20;99.90;;;;;;5025627;28;20041;-71
2023/06/20 11:03:01;;;;;;;24.10;15.38;;;23.10;99.90;;;;;;5013890;28;20123;-72
2023/06/20 11:05:54;;;;;;;24.65;17.23;;;23.10;99.90;;;;;;5010084;28;20026;-70
2023/06/20 11:08:45;;;;;;;21.60;17.60;;;23.00;99.90;;;;;;5011185;28;20030;-70
2023/06/20 11:11:38;;;;;;;23.38;17.60;;;23.00;99.90;;;;;;5008988;28;20038;-71
2023/06/20 11:14:25;;;;;;;25.52;17.23;;;23.00;99.90;;;;;;5022188;28;20037;-70
2023/06/20 11:17:11;;;;;;;27.13;19.10;;;23.00;99.90;;;;;;5018981;28;20490;-70
2023/06/20 11:19:57;;;;;;;22.58;16.73;;;23.00;99.90;;;;;;5018047;28;20034;-71
2023/06/20 11:22:42;;;;;;;24.23;18.05;;;23.00;99.90;;;;;;5026128;28;20034;-67
2023/06/20 11:25:29;;;;;;;25.17;18.42;;;23.00;99.90;;;;;;5019794;28;20041;-70
2023/06/20 11:28:16;;;;;;;22.48;17.33;;;23.00;99.90;;;;;;5026213;28;20029;-68
2023/06/20 11:31:09;;;;;;;25.33;18.88;;;23.00;99.90;;;;;;5022347;28;20088;-69
2023/06/20 11:34:09;;;;;;;23.63;17.35;;;23.00;99.90;;;;;;5028002;28;20040;-67
2023/06/20 11:36:55;;;;;;;22.38;16.92;;;23.00;99.90;;;;;;5026471;28;20033;-72
2023/06/20 11:39:41;;;;;;;22.52;17.90;;;23.00;99.90;;;;;;5024707;28;20042;-70
2023/06/20 11:42:34;;;;;;;24.85;18.08;;;23.00;99.90;;;;;;5022005;28;20504;-70
2023/06/20 11:45:25;;;;;;;23.73;18.10;;;23.00;99.90;;;;;;5019617;28;20034;-72
2023/06/20 11:48:14;;;;;;;22.95;18.45;;;23.00;99.90;;;;;;5014590;28;20029;-72
2023/06/20 11:51:01;;;;;;;23.75;17.92;;;23.00;99.90;;;;;;5027916;28;20156;-70
2023/06/20 11:53:58;;;;;;;24.05;19.05;;;23.10;99.90;;;;;;5029987;28;20510;-72
2023/06/20 11:56:49;;;;;;;24.88;18.45;;;23.10;99.90;;;;;;5025652;28;20026;-69
2023/06/20 11:59:35;;;;;;;23.10;18.77;;;23.20;99.90;;;;;;5017560;28;20124;-69
2023/06/20 12:02:24;;;;;;;26.27;19.60;;;23.20;99.90;;;;;;5027354;28;20069;-69
2023/06/20 12:05:10;;;;;;;24.92;17.58;;;23.20;99.90;;;;;;5018909;28;20034;-70
2023/06/20 12:07:56;;;;;;;25.08;18.02;;;23.20;99.90;;;;;;5018569;28;20030;-69
2023/06/20 12:11:00;;;;;;;22.80;18.00;;;23.20;99.90;;;;;;5017688;28;20034;-69
2023/06/20 12:13:47;;;;;;;21.40;17.48;;;23.20;99.90;;;;;;5019133;28;20502;-69
2023/06/20 12:16:33;;;;;;;26.27;18.15;;;23.20;99.90;;;;;;5023637;28;20738;-69
2023/06/20 12:19:20;;;;;;;25.08;17.50;;;23.20;99.90;;;;;;5023627;28;20067;-70
2023/06/20 12:22:06;;;;;;;22.75;17.55;;;23.30;99.90;;;;;;5023047;28;20021;-69
2023/06/20 12:24:51;;;;;;;22.92;17.60;;;23.40;99.90;;;;;;5014627;28;20120;-70
2023/06/20 12:27:37;;;;;;;20.63;16.52;;;23.60;99.90;;;;;;5020940;28;20032;-69
2023/06/20 12:30:25;;;;;;;21.77;15.68;;;23.80;99.90;;;;;;5024107;28;20548;-69
2023/06/20 12:33:12;;;;;;;21.08;15.23;;;24.10;99.90;;;;;;5025421;28;20049;-70
2023/06/20 12:35:58;;;;;;;21.27;15.73;;;24.30;99.90;;;;;;5029422;28;20099;-70
2023/06/20 12:38:44;;;;;;;22.88;14.02;;;24.50;99.90;;;;;;5020632;28;20036;-69
2023/06/20 12:41:35;;;;;;;20.17;14.32;;;24.70;99.90;;;;;;5027837;28;20026;-70
2023/06/20 12:44:20;;;;;;;17.13;13.48;;;24.90;99.90;;;;;;5021821;28;20405;-70
2023/06/20 12:47:07;;;;;;;18.75;15.07;;;24.90;99.90;;;;;;5010039;28;20061;-69
2023/06/20 12:49:53;;;;;;;17.77;14.23;;;25.00;99.90;;;;;;5012474;28;20038;-70
2023/06/20 12:52:39;;;;;;;18.52;14.27;;;25.10;99.90;;;;;;5019900;28;20546;-69
2023/06/20 12:55:25;;;;;;;17.88;14.68;;;25.30;99.90;;;;;;5020209;28;20049;-70
2023/06/20 12:58:14;;;;;;;20.27;13.75;;;25.50;99.90;;;;;;5027056;28;20405;-70
2023/06/20 13:01:01;;;;;;;18.40;13.90;;;25.60;99.90;;;;;;5027552;28;20053;-69
2023/06/20 13:03:47;;;;;;;17.67;13.15;;;25.70;99.90;;;;;;5029363;28;20044;-69
2023/06/20 13:06:35;;;;;;;18.17;13.13;;;25.80;99.90;;;;;;5017764;28;20045;-69
2023/06/20 13:09:21;;;;;;;17.75;13.10;;;25.80;99.90;;;;;;5027612;28;20396;-69
2023/06/20 13:12:07;;;;;;;16.60;13.27;;;25.90;99.90;;;;;;5022901;28;20029;-69
2023/06/20 13:14:53;;;;;;;16.13;12.60;;;26.10;99.90;;;;;;5009958;28;20120;-68
2023/06/20 13:17:39;;;;;;;15.90;11.38;;;26.20;99.90;;;;;;5017899;28;20140;-68
2023/06/20 13:20:25;;;;;;;14.98;11.40;;;26.30;99.50;;;;;;5019565;28;20126;-69
2023/06/20 13:23:11;;;;;;;13.50;10.35;;;26.40;99.00;;;;;;5011516;28;20121;-68
2023/06/20 13:25:57;;;;;;;14.98;11.25;;;26.50;98.70;;;;;;5017034;28;20033;-69
2023/06/20 13:28:43;;;;;;;12.40;10.30;;;26.50;99.00;;;;;;5025490;28;20033;-68
2023/06/20 13:31:29;;;;;;;14.30;10.85;;;26.50;98.50;;;;;;5016610;28;20057;-68
2023/06/20 13:34:15;;;;;;;13.82;11.10;;;26.60;98.60;;;;;;5027807;28;20041;-68
2023/06/20 13:37:01;;;;;;;14.57;10.10;;;26.70;98.60;;;;;;5013457;28;20030;-68
2023/06/20 13:39:47;;;;;;;12.45;10.00;;;26.80;98.40;;;;;;5012196;28;20629;-68
2023/06/20 13:42:34;;;;;;;13.98;11.90;;;26.80;98.40;;;;;;5025564;28;20452;-68
2023/06/20 13:45:21;;;;;;;12.95;10.70;;;26.90;98.10;;;;;;5013150;28;20045;-68
2023/06/20 13:48:07;;;;;;;14.95;10.32;;;27.00;98.10;;;;;;5027781;28;20519;-68
2023/06/20 13:50:53;;;;;;;13.05;10.10;;;27.00;97.80;;;;;;5028049;28;20068;-68
2023/06/20 13:53:39;;;;;;;12.90;9.68;;;27.00;97.20;;;;;;5026106;28;20116;-68
2023/06/20 13:56:25;;;;;;;12.55;9.90;;;27.00;97.00;;;;;;5012641;28;20026;-68
2023/06/20 13:59:11;;;;;;;11.82;9.30;;;27.10;97.00;;;;;;5017273;28;20073;-71
2023/06/20 14:01:57;;;;;;;12.60;9.60;;;27.20;97.40;;;;;;5015371;28;20466;-69
2023/06/20 14:04:43;;;;;;;12.82;10.13;;;27.40;97.60;;;;;;5024115;28;20088;-69
2023/06/20 14:07:32;;;;;;;10.73;8.90;;;27.50;97.40;;;;;;5018616;28;20044;-69
2023/06/20 14:10:18;;;;;;;11.43;9.05;;;27.60;97.30;;;;;;5009189;28;20115;-70
2023/06/20 14:13:04;;;;;;;17.48;9.80;;;27.70;97.00;;;;;;5011670;28;20593;-68
2023/06/20 14:15:50;;;;;;;12.80;9.98;;;27.70;97.20;;;;;;5018678;28;20482;-68
2023/06/20 14:18:36;;;;;;;11.27;9.00;;;27.80;97.30;;;;;;5012649;28;20034;-68
2023/06/20 14:21:22;;;;;;;14.18;10.25;;;27.80;97.30;;;;;;5022457;28;20116;-68